sensor_id;sensor_type;location;lat;lon;timestamp;P1;durP1;ratioP1;P2;durP2;ratioP2
75021;SDS011;63583;49.976;20.182;2023-04-09T00:01:59;36.33;;;16.13;;
75021;SDS011;63583;49.976;20.182;2023-04-09T00:04:24;32.85;;;15.60;;
75021;SDS011;63583;49.976;20.182;2023-04-09T00:06:50;37.38;;;15.07;;
75021;SDS011;63583;49.976;20.182;2023-04-09T00:09:15;33.40;;;16.33;;
75021;SDS011;63583;49.976;20.182;2023-04-09T00:11:41;35.00;;;16.08;;
75021;SDS011;63583;49.976;20.182;2023-04-09T00:14:07;32.00;;;14.27;;
75021;SDS011;63583;49.976;20.182;2023-04-09T00:16:32;30.70;;;15.02;;
75021;SDS011;63583;49.976;20.182;2023-04-09T00:18:58;34.85;;;14.25;;
75021;SDS011;63583;49.976;20.182;2023-04-09T00:21:23;30.35;;;14.38;;
75021;SDS011;63583;49.976;20.182;2023-04-09T00:23:51;31.23;;;13.60;;
75021;SDS011;63583;49.976;20.182;2023-04-09T00:26:16;35.00;;;14.98;;
75021;SDS011;63583;49.976;20.182;2023-04-09T00:28:42;40.38;;;15.20;;
75021;SDS011;63583;49.976;20.182;2023-04-09T00:31:08;34.70;;;14.70;;
75021;SDS011;63583;49.976;20.182;2023-04-09T00:33:35;30.23;;;14.27;;
75021;SDS011;63583;49.976;20.182;2023-04-09T00:36:00;33.15;;;14.07;;
75021;SDS011;63583;49.976;20.182;2023-04-09T00:38:26;35.28;;;15.30;;
75021;SDS011;63583;49.976;20.182;2023-04-09T00:40:51;31.70;;;14.77;;
75021;SDS011;63583;49.976;20.182;2023-04-09T00:43:17;34.85;;;13.93;;
75021;SDS011;63583;49.976;20.182;2023-04-09T00:45:43;29.42;;;13.68;;
75021;SDS011;63583;49.976;20.182;2023-04-09T00:48:10;33.00;;;13.40;;
75021;SDS011;63583;49.976;20.182;2023-04-09T00:50:37;34.25;;;13.90;;
75021;SDS011;63583;49.976;20.182;2023-04-09T00:53:03;29.52;;;13.35;;
75021;SDS011;63583;49.976;20.182;2023-04-09T00:55:29;31.50;;;14.63;;
75021;SDS011;63583;49.976;20.182;2023-04-09T00:57:56;32.78;;;14.57;;
75021;SDS011;63583;49.976;20.182;2023-04-09T01:00:21;31.10;;;14.07;;
75021;SDS011;63583;49.976;20.182;2023-04-09T01:02:47;35.53;;;15.35;;
75021;SDS011;63583;49.976;20.182;2023-04-09T01:05:13;36.22;;;14.43;;
75021;SDS011;63583;49.976;20.182;2023-04-09T01:13:38;36.22;;;15.18;;
75021;SDS011;63583;49.976;20.182;2023-04-09T01:16:12;31.58;;;15.52;;
75021;SDS011;63583;49.976;20.182;2023-04-09T01:18:47;34.28;;;15.95;;
75021;SDS011;63583;49.976;20.182;2023-04-09T01:21:18;30.98;;;14.80;;
75021;SDS011;63583;49.976;20.182;2023-04-09T01:23:46;29.23;;;14.13;;
75021;SDS011;63583;49.976;20.182;2023-04-09T01:27:16;31.90;;;13.15;;
75021;SDS011;63583;49.976;20.182;2023-04-09T01:29:22;33.42;;;14.07;;
75021;SDS011;63583;49.976;20.182;2023-04-09T01:31:50;28.45;;;13.35;;
75021;SDS011;63583;49.976;20.182;2023-04-09T01:34:16;27.65;;;12.65;;
75021;SDS011;63583;49.976;20.182;2023-04-09T01:36:54;25.98;;;12.93;;
75021;SDS011;63583;49.976;20.182;2023-04-09T01:39:23;36.83;;;15.57;;
75021;SDS011;63583;49.976;20.182;2023-04-09T01:41:49;29.10;;;13.80;;
75021;SDS011;63583;49.976;20.182;2023-04-09T01:44:16;30.85;;;14.40;;
75021;SDS011;63583;49.976;20.182;2023-04-09T01:46:42;31.02;;;15.65;;
75021;SDS011;63583;49.976;20.182;2023-04-09T01:49:08;31.38;;;14.55;;
75021;SDS011;63583;49.976;20.182;2023-04-09T01:51:35;32.33;;;15.32;;
75021;SDS011;63583;49.976;20.182;2023-04-09T01:54:01;34.50;;;14.95;;
75021;SDS011;63583;49.976;20.182;2023-04-09T01:56:27;38.88;;;16.27;;
75021;SDS011;63583;49.976;20.182;2023-04-09T01:59:04;33.00;;;14.15;;
75021;SDS011;63583;49.976;20.182;2023-04-09T02:09:43;31.77;;;13.73;;
75021;SDS011;63583;49.976;20.182;2023-04-09T02:12:12;27.83;;;12.05;;
75021;SDS011;63583;49.976;20.182;2023-04-09T02:14:40;31.30;;;12.88;;
75021;SDS011;63583;49.976;20.182;2023-04-09T02:17:07;31.13;;;14.75;;
75021;SDS011;63583;49.976;20.182;2023-04-09T02:19:42;37.72;;;15.93;;
75021;SDS011;63583;49.976;20.182;2023-04-09T02:22:10;36.55;;;14.85;;
75021;SDS011;63583;49.976;20.182;2023-04-09T02:24:36;32.72;;;14.18;;
75021;SDS011;63583;49.976;20.182;2023-04-09T02:27:03;36.58;;;13.88;;
75021;SDS011;63583;49.976;20.182;2023-04-09T02:29:30;28.63;;;12.88;;
75021;SDS011;63583;49.976;20.182;2023-04-09T02:31:56;38.70;;;16.75;;
75021;SDS011;63583;49.976;20.182;2023-04-09T02:34:22;29.00;;;14.00;;
75021;SDS011;63583;49.976;20.182;2023-04-09T02:36:47;30.20;;;13.80;;
75021;SDS011;63583;49.976;20.182;2023-04-09T02:39:13;35.55;;;15.73;;
75021;SDS011;63583;49.976;20.182;2023-04-09T02:41:39;35.95;;;14.65;;
75021;SDS011;63583;49.976;20.182;2023-04-09T02:44:04;37.72;;;16.55;;
75021;SDS011;63583;49.976;20.182;2023-04-09T02:46:30;37.75;;;18.35;;
75021;SDS011;63583;49.976;20.182;2023-04-09T02:48:56;35.50;;;15.52;;
75021;SDS011;63583;49.976;20.182;2023-04-09T02:51:21;31.92;;;15.98;;
75021;SDS011;63583;49.976;20.182;2023-04-09T02:53:47;41.80;;;16.23;;
75021;SDS011;63583;49.976;20.182;2023-04-09T02:56:12;39.65;;;16.00;;
75021;SDS011;63583;49.976;20.182;2023-04-09T02:58:38;35.22;;;15.27;;
75021;SDS011;63583;49.976;20.182;2023-04-09T03:01:04;34.65;;;16.98;;
75021;SDS011;63583;49.976;20.182;2023-04-09T03:03:29;35.70;;;16.70;;
75021;SDS011;63583;49.976;20.182;2023-04-09T03:05:55;40.90;;;16.83;;
75021;SDS011;63583;49.976;20.182;2023-04-09T03:08:21;35.40;;;15.48;;
75021;SDS011;63583;49.976;20.182;2023-04-09T03:10:47;30.17;;;14.93;;
75021;SDS011;63583;49.976;20.182;2023-04-09T03:13:13;35.10;;;15.35;;
75021;SDS011;63583;49.976;20.182;2023-04-09T03:15:38;35.80;;;15.38;;
75021;SDS011;63583;49.976;20.182;2023-04-09T03:18:04;29.08;;;14.70;;
75021;SDS011;63583;49.976;20.182;2023-04-09T03:20:29;29.95;;;14.18;;
75021;SDS011;63583;49.976;20.182;2023-04-09T03:22:55;37.75;;;15.35;;
75021;SDS011;63583;49.976;20.182;2023-04-09T03:25:21;30.42;;;15.32;;
75021;SDS011;63583;49.976;20.182;2023-04-09T03:27:46;30.35;;;13.95;;
75021;SDS011;63583;49.976;20.182;2023-04-09T03:30:12;28.17;;;13.27;;
75021;SDS011;63583;49.976;20.182;2023-04-09T03:32:38;33.75;;;14.13;;
75021;SDS011;63583;49.976;20.182;2023-04-09T03:35:03;29.60;;;13.45;;
75021;SDS011;63583;49.976;20.182;2023-04-09T03:37:29;34.13;;;15.23;;
75021;SDS011;63583;49.976;20.182;2023-04-09T03:39:55;30.88;;;12.65;;
75021;SDS011;63583;49.976;20.182;2023-04-09T03:42:20;34.47;;;15.27;;
75021;SDS011;63583;49.976;20.182;2023-04-09T03:44:46;35.13;;;14.45;;
75021;SDS011;63583;49.976;20.182;2023-04-09T03:47:11;31.90;;;13.75;;
75021;SDS011;63583;49.976;20.182;2023-04-09T03:49:37;30.83;;;14.77;;
75021;SDS011;63583;49.976;20.182;2023-04-09T03:52:03;38.13;;;15.27;;
75021;SDS011;63583;49.976;20.182;2023-04-09T03:54:30;34.33;;;15.02;;
75021;SDS011;63583;49.976;20.182;2023-04-09T03:56:55;35.78;;;15.98;;
75021;SDS011;63583;49.976;20.182;2023-04-09T03:59:21;28.80;;;14.30;;
75021;SDS011;63583;49.976;20.182;2023-04-09T04:01:48;31.77;;;14.88;;
75021;SDS011;63583;49.976;20.182;2023-04-09T04:04:13;32.63;;;16.05;;
75021;SDS011;63583;49.976;20.182;2023-04-09T04:06:39;33.50;;;15.38;;
75021;SDS011;63583;49.976;20.182;2023-04-09T04:09:05;34.33;;;14.63;;
75021;SDS011;63583;49.976;20.182;2023-04-09T04:11:30;37.80;;;15.52;;
75021;SDS011;63583;49.976;20.182;2023-04-09T04:13:56;38.10;;;16.98;;
75021;SDS011;63583;49.976;20.182;2023-04-09T04:16:22;36.25;;;17.40;;
75021;SDS011;63583;49.976;20.182;2023-04-09T04:18:47;34.97;;;16.88;;
75021;SDS011;63583;49.976;20.182;2023-04-09T04:21:13;40.83;;;17.50;;
75021;SDS011;63583;49.976;20.182;2023-04-09T04:23:39;39.78;;;17.08;;
75021;SDS011;63583;49.976;20.182;2023-04-09T04:26:06;37.72;;;15.85;;
75021;SDS011;63583;49.976;20.182;2023-04-09T04:28:35;40.13;;;17.50;;
75021;SDS011;63583;49.976;20.182;2023-04-09T04:31:02;35.13;;;15.90;;
75021;SDS011;63583;49.976;20.182;2023-04-09T04:33:31;36.53;;;15.75;;
75021;SDS011;63583;49.976;20.182;2023-04-09T04:36:06;35.35;;;16.20;;
75021;SDS011;63583;49.976;20.182;2023-04-09T04:38:33;35.53;;;14.73;;
75021;SDS011;63583;49.976;20.182;2023-04-09T04:40:59;36.22;;;15.20;;
75021;SDS011;63583;49.976;20.182;2023-04-09T04:43:25;36.38;;;16.20;;
75021;SDS011;63583;49.976;20.182;2023-04-09T04:45:51;38.38;;;15.85;;
75021;SDS011;63583;49.976;20.182;2023-04-09T04:48:17;31.05;;;15.88;;
75021;SDS011;63583;49.976;20.182;2023-04-09T04:50:42;35.97;;;14.48;;
75021;SDS011;63583;49.976;20.182;2023-04-09T04:53:08;34.90;;;14.40;;
75021;SDS011;63583;49.976;20.182;2023-04-09T04:55:34;38.05;;;15.10;;
75021;SDS011;63583;49.976;20.182;2023-04-09T04:58:00;35.28;;;15.63;;
75021;SDS011;63583;49.976;20.182;2023-04-09T05:00:26;32.67;;;13.98;;
75021;SDS011;63583;49.976;20.182;2023-04-09T05:02:52;34.10;;;15.00;;
75021;SDS011;63583;49.976;20.182;2023-04-09T05:05:18;36.80;;;17.15;;
75021;SDS011;63583;49.976;20.182;2023-04-09T05:07:43;31.73;;;14.20;;
75021;SDS011;63583;49.976;20.182;2023-04-09T05:10:09;33.08;;;13.98;;
75021;SDS011;63583;49.976;20.182;2023-04-09T05:12:34;28.48;;;13.85;;
75021;SDS011;63583;49.976;20.182;2023-04-09T05:15:00;31.52;;;13.43;;
75021;SDS011;63583;49.976;20.182;2023-04-09T05:17:26;31.50;;;15.38;;
75021;SDS011;63583;49.976;20.182;2023-04-09T05:19:52;36.38;;;16.35;;
75021;SDS011;63583;49.976;20.182;2023-04-09T05:22:18;48.83;;;22.50;;
75021;SDS011;63583;49.976;20.182;2023-04-09T05:24:44;43.97;;;20.13;;
75021;SDS011;63583;49.976;20.182;2023-04-09T05:27:09;40.25;;;19.88;;
75021;SDS011;63583;49.976;20.182;2023-04-09T05:29:35;43.05;;;19.45;;
75021;SDS011;63583;49.976;20.182;2023-04-09T05:32:01;40.38;;;18.95;;
75021;SDS011;63583;49.976;20.182;2023-04-09T05:34:26;44.60;;;17.73;;
75021;SDS011;63583;49.976;20.182;2023-04-09T05:36:52;47.17;;;18.15;;
75021;SDS011;63583;49.976;20.182;2023-04-09T05:39:19;42.38;;;18.60;;
75021;SDS011;63583;49.976;20.182;2023-04-09T05:41:44;41.17;;;17.40;;
75021;SDS011;63583;49.976;20.182;2023-04-09T05:44:11;39.97;;;17.50;;
75021;SDS011;63583;49.976;20.182;2023-04-09T05:46:36;42.13;;;18.13;;
75021;SDS011;63583;49.976;20.182;2023-04-09T05:49:02;45.58;;;17.52;;
75021;SDS011;63583;49.976;20.182;2023-04-09T05:51:28;34.72;;;16.85;;
75021;SDS011;63583;49.976;20.182;2023-04-09T05:53:54;39.30;;;18.33;;
75021;SDS011;63583;49.976;20.182;2023-04-09T05:56:19;41.35;;;18.90;;
75021;SDS011;63583;49.976;20.182;2023-04-09T05:58:47;43.53;;;19.88;;
75021;SDS011;63583;49.976;20.182;2023-04-09T06:01:12;36.33;;;18.38;;
75021;SDS011;63583;49.976;20.182;2023-04-09T06:03:38;38.47;;;17.02;;
75021;SDS011;63583;49.976;20.182;2023-04-09T06:06:04;39.75;;;17.45;;
75021;SDS011;63583;49.976;20.182;2023-04-09T06:08:31;36.63;;;16.95;;
75021;SDS011;63583;49.976;20.182;2023-04-09T06:10:56;36.42;;;15.57;;
75021;SDS011;63583;49.976;20.182;2023-04-09T06:13:23;43.42;;;17.42;;
75021;SDS011;63583;49.976;20.182;2023-04-09T06:15:48;36.30;;;17.85;;
75021;SDS011;63583;49.976;20.182;2023-04-09T06:18:14;39.75;;;17.45;;
75021;SDS011;63583;49.976;20.182;2023-04-09T06:20:40;41.22;;;17.20;;
75021;SDS011;63583;49.976;20.182;2023-04-09T06:23:06;45.78;;;18.48;;
75021;SDS011;63583;49.976;20.182;2023-04-09T06:25:31;40.13;;;19.30;;
75021;SDS011;63583;49.976;20.182;2023-04-09T06:27:57;46.47;;;18.77;;
75021;SDS011;63583;49.976;20.182;2023-04-09T06:30:23;44.20;;;18.48;;
75021;SDS011;63583;49.976;20.182;2023-04-09T06:32:49;38.88;;;18.63;;
75021;SDS011;63583;49.976;20.182;2023-04-09T06:35:15;38.92;;;17.42;;
75021;SDS011;63583;49.976;20.182;2023-04-09T06:37:41;38.97;;;17.23;;
75021;SDS011;63583;49.976;20.182;2023-04-09T06:40:07;39.80;;;17.67;;
75021;SDS011;63583;49.976;20.182;2023-04-09T06:42:33;39.80;;;17.27;;
75021;SDS011;63583;49.976;20.182;2023-04-09T06:44:58;40.78;;;16.90;;
75021;SDS011;63583;49.976;20.182;2023-04-09T06:47:24;37.15;;;16.65;;
75021;SDS011;63583;49.976;20.182;2023-04-09T06:49:50;41.78;;;17.25;;
75021;SDS011;63583;49.976;20.182;2023-04-09T06:52:15;40.22;;;16.73;;
75021;SDS011;63583;49.976;20.182;2023-04-09T06:54:41;37.83;;;16.58;;
75021;SDS011;63583;49.976;20.182;2023-04-09T06:57:07;40.78;;;18.15;;
75021;SDS011;63583;49.976;20.182;2023-04-09T06:59:33;33.72;;;15.40;;
75021;SDS011;63583;49.976;20.182;2023-04-09T07:01:59;37.10;;;17.15;;
75021;SDS011;63583;49.976;20.182;2023-04-09T07:04:25;36.22;;;16.02;;
75021;SDS011;63583;49.976;20.182;2023-04-09T07:06:51;35.28;;;16.67;;
75021;SDS011;63583;49.976;20.182;2023-04-09T07:09:19;43.17;;;17.45;;
75021;SDS011;63583;49.976;20.182;2023-04-09T07:11:45;39.05;;;16.42;;
75021;SDS011;63583;49.976;20.182;2023-04-09T07:14:10;37.03;;;15.32;;
75021;SDS011;63583;49.976;20.182;2023-04-09T07:16:36;34.42;;;15.95;;
75021;SDS011;63583;49.976;20.182;2023-04-09T07:19:02;36.10;;;16.23;;
75021;SDS011;63583;49.976;20.182;2023-04-09T07:21:27;41.70;;;16.25;;
75021;SDS011;63583;49.976;20.182;2023-04-09T07:23:53;33.00;;;14.35;;
75021;SDS011;63583;49.976;20.182;2023-04-09T07:26:19;31.08;;;14.63;;
75021;SDS011;63583;49.976;20.182;2023-04-09T07:28:44;34.38;;;15.00;;
75021;SDS011;63583;49.976;20.182;2023-04-09T07:31:10;30.92;;;15.38;;
75021;SDS011;63583;49.976;20.182;2023-04-09T07:33:37;33.28;;;14.35;;
75021;SDS011;63583;49.976;20.182;2023-04-09T07:36:02;27.65;;;13.52;;
75021;SDS011;63583;49.976;20.182;2023-04-09T07:38:28;27.05;;;13.93;;
75021;SDS011;63583;49.976;20.182;2023-04-09T07:40:54;32.05;;;15.43;;
75021;SDS011;63583;49.976;20.182;2023-04-09T07:43:20;30.38;;;14.02;;
75021;SDS011;63583;49.976;20.182;2023-04-09T07:45:48;33.28;;;14.95;;
75021;SDS011;63583;49.976;20.182;2023-04-09T07:48:15;28.17;;;13.45;;
75021;SDS011;63583;49.976;20.182;2023-04-09T07:50:42;23.60;;;11.23;;
75021;SDS011;63583;49.976;20.182;2023-04-09T07:53:09;23.00;;;11.32;;
75021;SDS011;63583;49.976;20.182;2023-04-09T07:55:36;25.67;;;11.15;;
75021;SDS011;63583;49.976;20.182;2023-04-09T07:58:01;24.85;;;10.98;;
75021;SDS011;63583;49.976;20.182;2023-04-09T08:00:29;25.10;;;11.60;;
75021;SDS011;63583;49.976;20.182;2023-04-09T08:02:54;26.05;;;11.88;;
75021;SDS011;63583;49.976;20.182;2023-04-09T08:05:21;20.05;;;10.73;;
75021;SDS011;63583;49.976;20.182;2023-04-09T08:07:49;21.88;;;10.93;;
75021;SDS011;63583;49.976;20.182;2023-04-09T08:10:15;23.23;;;10.63;;
75021;SDS011;63583;49.976;20.182;2023-04-09T08:12:41;26.17;;;11.88;;
75021;SDS011;63583;49.976;20.182;2023-04-09T08:15:07;21.90;;;10.57;;
75021;SDS011;63583;49.976;20.182;2023-04-09T08:17:33;24.33;;;12.52;;
75021;SDS011;63583;49.976;20.182;2023-04-09T08:20:01;24.67;;;12.23;;
75021;SDS011;63583;49.976;20.182;2023-04-09T08:22:28;26.15;;;12.23;;
75021;SDS011;63583;49.976;20.182;2023-04-09T08:24:54;26.75;;;11.52;;
75021;SDS011;63583;49.976;20.182;2023-04-09T08:27:21;23.40;;;12.52;;
75021;SDS011;63583;49.976;20.182;2023-04-09T08:29:47;20.65;;;9.68;;
75021;SDS011;63583;49.976;20.182;2023-04-09T08:32:12;23.02;;;11.13;;
75021;SDS011;63583;49.976;20.182;2023-04-09T08:34:38;26.65;;;11.38;;
75021;SDS011;63583;49.976;20.182;2023-04-09T08:37:04;22.70;;;12.18;;
75021;SDS011;63583;49.976;20.182;2023-04-09T08:39:30;24.67;;;12.40;;
75021;SDS011;63583;49.976;20.182;2023-04-09T08:41:57;22.90;;;11.65;;
75021;SDS011;63583;49.976;20.182;2023-04-09T08:44:27;24.63;;;10.38;;
75021;SDS011;63583;49.976;20.182;2023-04-09T08:46:53;20.17;;;10.32;;
75021;SDS011;63583;49.976;20.182;2023-04-09T08:49:19;20.40;;;10.15;;
75021;SDS011;63583;49.976;20.182;2023-04-09T08:51:46;19.75;;;9.10;;
75021;SDS011;63583;49.976;20.182;2023-04-09T08:54:16;20.85;;;9.80;;
75021;SDS011;63583;49.976;20.182;2023-04-09T08:56:46;18.63;;;9.32;;
75021;SDS011;63583;49.976;20.182;2023-04-09T08:59:15;19.08;;;9.20;;
75021;SDS011;63583;49.976;20.182;2023-04-09T09:01:42;19.75;;;10.30;;
75021;SDS011;63583;49.976;20.182;2023-04-09T09:04:08;20.60;;;10.38;;
75021;SDS011;63583;49.976;20.182;2023-04-09T09:06:35;19.65;;;9.68;;
75021;SDS011;63583;49.976;20.182;2023-04-09T09:09:15;22.75;;;11.05;;
75021;SDS011;63583;49.976;20.182;2023-04-09T09:11:45;19.00;;;9.38;;
75021;SDS011;63583;49.976;20.182;2023-04-09T09:14:16;18.35;;;9.50;;
75021;SDS011;63583;49.976;20.182;2023-04-09T09:16:44;20.65;;;10.77;;
75021;SDS011;63583;49.976;20.182;2023-04-09T09:19:29;17.35;;;9.50;;
75021;SDS011;63583;49.976;20.182;2023-04-09T09:22:00;19.95;;;9.32;;
75021;SDS011;63583;49.976;20.182;2023-04-09T09:24:28;19.63;;;8.98;;
75021;SDS011;63583;49.976;20.182;2023-04-09T09:26:54;17.95;;;9.50;;
75021;SDS011;63583;49.976;20.182;2023-04-09T09:29:21;15.50;;;9.23;;
75021;SDS011;63583;49.976;20.182;2023-04-09T09:31:56;17.80;;;8.50;;
75021;SDS011;63583;49.976;20.182;2023-04-09T09:34:22;17.52;;;9.05;;
75021;SDS011;63583;49.976;20.182;2023-04-09T09:36:49;17.90;;;8.48;;
75021;SDS011;63583;49.976;20.182;2023-04-09T09:39:15;18.58;;;8.95;;
75021;SDS011;63583;49.976;20.182;2023-04-09T09:41:42;17.08;;;9.10;;
75021;SDS011;63583;49.976;20.182;2023-04-09T09:44:09;18.50;;;9.30;;
75021;SDS011;63583;49.976;20.182;2023-04-09T09:46:37;20.17;;;10.10;;
75021;SDS011;63583;49.976;20.182;2023-04-09T09:49:07;18.52;;;9.38;;
75021;SDS011;63583;49.976;20.182;2023-04-09T09:51:35;20.90;;;10.57;;
75021;SDS011;63583;49.976;20.182;2023-04-09T09:54:03;19.48;;;9.73;;
75021;SDS011;63583;49.976;20.182;2023-04-09T09:56:36;20.63;;;9.30;;
75021;SDS011;63583;49.976;20.182;2023-04-09T09:59:09;17.60;;;9.45;;
75021;SDS011;63583;49.976;20.182;2023-04-09T10:01:41;13.90;;;7.32;;
75021;SDS011;63583;49.976;20.182;2023-04-09T10:04:08;14.10;;;7.85;;
75021;SDS011;63583;49.976;20.182;2023-04-09T10:06:42;17.63;;;7.97;;
75021;SDS011;63583;49.976;20.182;2023-04-09T10:09:09;16.48;;;8.05;;
75021;SDS011;63583;49.976;20.182;2023-04-09T10:11:35;15.18;;;8.00;;
75021;SDS011;63583;49.976;20.182;2023-04-09T10:14:02;15.07;;;8.02;;
75021;SDS011;63583;49.976;20.182;2023-04-09T10:16:31;19.17;;;8.63;;
75021;SDS011;63583;49.976;20.182;2023-04-09T10:18:57;15.80;;;8.07;;
75021;SDS011;63583;49.976;20.182;2023-04-09T10:24:06;16.50;;;8.35;;
75021;SDS011;63583;49.976;20.182;2023-04-09T10:26:33;15.02;;;8.95;;
75021;SDS011;63583;49.976;20.182;2023-04-09T10:29:07;15.68;;;8.50;;
75021;SDS011;63583;49.976;20.182;2023-04-09T10:31:43;20.17;;;9.32;;
75021;SDS011;63583;49.976;20.182;2023-04-09T10:34:17;12.52;;;6.93;;
75021;SDS011;63583;49.976;20.182;2023-04-09T10:36:45;18.02;;;7.57;;
75021;SDS011;63583;49.976;20.182;2023-04-09T10:39:17;13.23;;;7.93;;
75021;SDS011;63583;49.976;20.182;2023-04-09T10:41:42;14.75;;;7.18;;
75021;SDS011;63583;49.976;20.182;2023-04-09T10:44:23;15.90;;;7.90;;
75021;SDS011;63583;49.976;20.182;2023-04-09T10:46:51;14.18;;;7.13;;
75021;SDS011;63583;49.976;20.182;2023-04-09T10:49:19;13.50;;;7.50;;
75021;SDS011;63583;49.976;20.182;2023-04-09T10:59:49;15.45;;;8.55;;
75021;SDS011;63583;49.976;20.182;2023-04-09T11:05:26;19.42;;;7.97;;
75021;SDS011;63583;49.976;20.182;2023-04-09T11:07:57;15.70;;;8.60;;
75021;SDS011;63583;49.976;20.182;2023-04-09T11:10:32;14.13;;;8.35;;
75021;SDS011;63583;49.976;20.182;2023-04-09T11:12:58;13.02;;;7.38;;
75021;SDS011;63583;49.976;20.182;2023-04-09T11:15:24;14.10;;;7.28;;
75021;SDS011;63583;49.976;20.182;2023-04-09T11:17:50;12.98;;;7.38;;
75021;SDS011;63583;49.976;20.182;2023-04-09T11:20:16;13.20;;;7.05;;
75021;SDS011;63583;49.976;20.182;2023-04-09T11:22:45;15.77;;;8.30;;
75021;SDS011;63583;49.976;20.182;2023-04-09T11:25:23;13.10;;;7.90;;
75021;SDS011;63583;49.976;20.182;2023-04-09T11:27:50;14.60;;;8.32;;
75021;SDS011;63583;49.976;20.182;2023-04-09T11:30:17;14.85;;;8.05;;
75021;SDS011;63583;49.976;20.182;2023-04-09T11:32:43;13.85;;;7.38;;
75021;SDS011;63583;49.976;20.182;2023-04-09T11:35:13;14.38;;;7.40;;
75021;SDS011;63583;49.976;20.182;2023-04-09T11:37:40;15.15;;;8.25;;
75021;SDS011;63583;49.976;20.182;2023-04-09T11:40:17;14.95;;;7.50;;
75021;SDS011;63583;49.976;20.182;2023-04-09T11:42:44;15.93;;;8.52;;
75021;SDS011;63583;49.976;20.182;2023-04-09T11:45:13;15.13;;;7.13;;
75021;SDS011;63583;49.976;20.182;2023-04-09T11:47:39;18.10;;;8.93;;
75021;SDS011;63583;49.976;20.182;2023-04-09T11:50:06;12.82;;;7.07;;
75021;SDS011;63583;49.976;20.182;2023-04-09T11:52:33;15.60;;;8.73;;
75021;SDS011;63583;49.976;20.182;2023-04-09T11:55:06;17.70;;;9.32;;
75021;SDS011;63583;49.976;20.182;2023-04-09T11:57:36;10.98;;;7.00;;
75021;SDS011;63583;49.976;20.182;2023-04-09T12:02:37;14.18;;;7.70;;
75021;SDS011;63583;49.976;20.182;2023-04-09T12:05:05;12.18;;;7.60;;
75021;SDS011;63583;49.976;20.182;2023-04-09T12:07:32;16.13;;;8.60;;
75021;SDS011;63583;49.976;20.182;2023-04-09T12:10:02;14.38;;;8.40;;
75021;SDS011;63583;49.976;20.182;2023-04-09T12:12:42;12.43;;;7.65;;
75021;SDS011;63583;49.976;20.182;2023-04-09T12:15:10;15.60;;;8.32;;
75021;SDS011;63583;49.976;20.182;2023-04-09T12:17:47;14.90;;;7.85;;
75021;SDS011;63583;49.976;20.182;2023-04-09T12:20:27;15.15;;;7.57;;
75021;SDS011;63583;49.976;20.182;2023-04-09T12:22:54;17.45;;;8.25;;
75021;SDS011;63583;49.976;20.182;2023-04-09T12:25:20;13.35;;;7.20;;
75021;SDS011;63583;49.976;20.182;2023-04-09T12:27:46;15.02;;;8.23;;
75021;SDS011;63583;49.976;20.182;2023-04-09T12:30:11;16.98;;;8.30;;
75021;SDS011;63583;49.976;20.182;2023-04-09T12:32:37;16.98;;;7.75;;
75021;SDS011;63583;49.976;20.182;2023-04-09T12:35:03;15.23;;;7.68;;
75021;SDS011;63583;49.976;20.182;2023-04-09T12:37:29;15.45;;;8.65;;
75021;SDS011;63583;49.976;20.182;2023-04-09T12:39:54;13.88;;;7.20;;
75021;SDS011;63583;49.976;20.182;2023-04-09T12:42:20;19.20;;;9.02;;
75021;SDS011;63583;49.976;20.182;2023-04-09T12:44:46;16.63;;;8.75;;
75021;SDS011;63583;49.976;20.182;2023-04-09T12:47:11;14.27;;;8.07;;
75021;SDS011;63583;49.976;20.182;2023-04-09T12:49:37;17.63;;;8.63;;
75021;SDS011;63583;49.976;20.182;2023-04-09T12:52:03;15.73;;;8.65;;
75021;SDS011;63583;49.976;20.182;2023-04-09T12:54:29;14.45;;;8.55;;
75021;SDS011;63583;49.976;20.182;2023-04-09T12:56:55;19.48;;;8.40;;
75021;SDS011;63583;49.976;20.182;2023-04-09T12:59:20;16.73;;;9.95;;
75021;SDS011;63583;49.976;20.182;2023-04-09T13:01:46;17.55;;;8.65;;
75021;SDS011;63583;49.976;20.182;2023-04-09T13:04:12;17.75;;;9.13;;
75021;SDS011;63583;49.976;20.182;2023-04-09T13:06:37;14.43;;;7.63;;
75021;SDS011;63583;49.976;20.182;2023-04-09T13:09:03;15.07;;;8.48;;
75021;SDS011;63583;49.976;20.182;2023-04-09T13:11:28;15.35;;;8.30;;
75021;SDS011;63583;49.976;20.182;2023-04-09T13:13:54;19.58;;;9.52;;
75021;SDS011;63583;49.976;20.182;2023-04-09T13:16:19;17.27;;;8.80;;
75021;SDS011;63583;49.976;20.182;2023-04-09T13:18:45;16.13;;;8.38;;
75021;SDS011;63583;49.976;20.182;2023-04-09T13:21:11;17.58;;;9.48;;
75021;SDS011;63583;49.976;20.182;2023-04-09T13:23:39;17.77;;;9.48;;
75021;SDS011;63583;49.976;20.182;2023-04-09T13:26:04;17.73;;;9.15;;
75021;SDS011;63583;49.976;20.182;2023-04-09T13:28:31;16.90;;;8.98;;
75021;SDS011;63583;49.976;20.182;2023-04-09T13:30:56;14.90;;;7.82;;
75021;SDS011;63583;49.976;20.182;2023-04-09T13:33:22;14.57;;;8.05;;
75021;SDS011;63583;49.976;20.182;2023-04-09T13:35:48;27.73;;;13.85;;
75021;SDS011;63583;49.976;20.182;2023-04-09T13:38:15;18.02;;;9.30;;
75021;SDS011;63583;49.976;20.182;2023-04-09T13:40:40;14.07;;;7.82;;
75021;SDS011;63583;49.976;20.182;2023-04-09T13:43:06;13.50;;;8.07;;
75021;SDS011;63583;49.976;20.182;2023-04-09T13:45:32;14.63;;;7.35;;
75021;SDS011;63583;49.976;20.182;2023-04-09T13:47:57;14.27;;;8.75;;
75021;SDS011;63583;49.976;20.182;2023-04-09T13:50:23;18.55;;;8.82;;
75021;SDS011;63583;49.976;20.182;2023-04-09T13:52:49;14.43;;;7.65;;
75021;SDS011;63583;49.976;20.182;2023-04-09T13:55:14;17.60;;;8.30;;
75021;SDS011;63583;49.976;20.182;2023-04-09T13:57:40;14.40;;;8.25;;
75021;SDS011;63583;49.976;20.182;2023-04-09T14:00:06;13.95;;;7.55;;
75021;SDS011;63583;49.976;20.182;2023-04-09T14:02:32;11.82;;;7.38;;
75021;SDS011;63583;49.976;20.182;2023-04-09T14:04:58;13.57;;;7.18;;
75021;SDS011;63583;49.976;20.182;2023-04-09T14:07:24;14.43;;;7.75;;
75021;SDS011;63583;49.976;20.182;2023-04-09T14:09:50;13.15;;;8.02;;
75021;SDS011;63583;49.976;20.182;2023-04-09T14:12:16;13.93;;;7.53;;
75021;SDS011;63583;49.976;20.182;2023-04-09T14:14:41;17.30;;;8.82;;
75021;SDS011;63583;49.976;20.182;2023-04-09T14:17:07;19.20;;;9.07;;
75021;SDS011;63583;49.976;20.182;2023-04-09T14:19:33;14.77;;;7.95;;
75021;SDS011;63583;49.976;20.182;2023-04-09T14:21:58;14.45;;;7.60;;
75021;SDS011;63583;49.976;20.182;2023-04-09T14:24:24;15.40;;;8.15;;
75021;SDS011;63583;49.976;20.182;2023-04-09T14:26:50;15.35;;;7.90;;
75021;SDS011;63583;49.976;20.182;2023-04-09T14:29:17;14.57;;;7.70;;
75021;SDS011;63583;49.976;20.182;2023-04-09T14:31:43;13.85;;;8.18;;
75021;SDS011;63583;49.976;20.182;2023-04-09T14:34:11;14.85;;;8.43;;
75021;SDS011;63583;49.976;20.182;2023-04-09T14:36:37;16.15;;;8.40;;
75021;SDS011;63583;49.976;20.182;2023-04-09T14:39:02;15.73;;;8.13;;
75021;SDS011;63583;49.976;20.182;2023-04-09T14:41:28;15.30;;;8.10;;
75021;SDS011;63583;49.976;20.182;2023-04-09T14:43:53;14.10;;;7.85;;